createdAt,value
2019-01-05T00:04:20.654Z,98352.38
2019-01-05T00:09:45.915Z,98351.13
2019-01-05T00:15:10.010Z,98361.34
2019-01-05T00:20:35.978Z,98354.36
2019-01-05T00:26:00.633Z,98343.21
2019-01-05T00:31:29.072Z,98323.77
2019-01-05T00:37:00.586Z,98334.16
2019-01-05T00:42:24.672Z,98335.53
2019-01-05T00:47:49.954Z,98334.03
2019-01-05T00:53:18.384Z,98334.84
2019-01-05T00:58:43.038Z,98329.77
2019-01-05T01:04:14.290Z,98326.54
2019-01-05T01:09:45.508Z,98323.52
2019-01-05T01:15:09.233Z,98315.95
2019-01-05T01:20:46.674Z,98320.90
2019-01-05T01:26:17.285Z,98317.72
2019-01-05T01:31:55.085Z,98317.22
2019-01-05T01:37:20.158Z,98306.52
2019-01-05T01:42:44.423Z,98297.14
2019-01-05T01:48:13.002Z,98272.30
2019-01-05T01:53:42.617Z,98260.19
2019-01-05T01:59:21.139Z,98255.08
2019-01-05T02:05:01.722Z,98245.41
2019-01-05T02:10:27.740Z,98248.81
2019-01-05T02:15:54.949Z,98234.42
2019-01-05T02:21:54.329Z,98226.00
2019-01-05T02:28:05.458Z,98205.27
2019-01-05T02:34:20.237Z,98188.33
2019-01-05T02:40:28.859Z,98191.33
2019-01-05T02:46:38.677Z,98181.16
2019-01-05T02:52:55.482Z,98171.06
2019-01-05T02:59:13.728Z,98152.18
2019-01-05T03:05:23.280Z,98157.61
2019-01-05T03:11:49.026Z,98136.95
2019-01-05T03:17:41.516Z,98130.14
2019-01-05T03:23:52.793Z,98108.38
2019-01-05T03:30:12.081Z,98106.82
2019-01-05T03:36:06.032Z,98103.89
2019-01-05T03:42:19.645Z,98088.80
2019-01-05T03:48:13.639Z,98089.74
2019-01-05T03:54:15.725Z,98077.95
2019-01-05T04:00:15.032Z,98065.09
2019-01-05T04:06:19.189Z,98073.06
2019-01-05T04:12:35.410Z,98074.97
2019-01-05T04:18:32.764Z,98064.98
2019-01-05T04:24:23.351Z,98054.30
2019-01-05T04:30:45.217Z,98046.48
2019-01-05T04:36:35.153Z,98040.48
2019-01-05T04:43:01.994Z,98041.66
2019-01-05T04:49:10.257Z,98022.70
2019-01-05T04:55:18.064Z,98015.20
2019-01-05T05:01:12.901Z,98003.68
2019-01-05T05:07:26.575Z,97990.83
2019-01-05T05:13:29.654Z,97976.24
2019-01-05T05:19:39.646Z,97961.61
2019-01-05T05:26:17.679Z,97962.53
2019-01-05T05:32:33.903Z,97946.97
2019-01-05T05:39:00.057Z,97947.44
2019-01-05T05:45:07.935Z,97952.80
2019-01-05T05:51:06.638Z,97934.82
2019-01-05T05:57:25.072Z,97924.16
2019-01-05T06:03:29.664Z,97920.35
2019-01-05T06:09:29.932Z,97921.61
2019-01-05T06:15:24.423Z,97912.37
2019-01-05T06:21:24.278Z,97916.23
2019-01-05T06:27:35.686Z,97914.06
2019-01-05T06:33:54.251Z,97910.37
2019-01-05T06:40:27.367Z,97910.17
2019-01-05T06:46:31.346Z,97907.53
2019-01-05T06:52:43.670Z,97906.88
2019-01-05T06:58:51.850Z,97912.59
2019-01-05T07:05:16.072Z,97912.67
2019-01-05T07:11:16.651Z,97909.27
2019-01-05T07:17:36.934Z,97899.59
2019-01-05T07:24:06.952Z,97896.00
2019-01-05T07:30:17.920Z,97902.44
2019-01-05T07:36:23.468Z,97897.77
2019-01-05T07:42:18.643Z,97878.14
2019-01-05T07:48:08.587Z,97880.26
2019-01-05T07:54:18.279Z,97898.33
2019-01-05T08:00:32.627Z,97910.34
2019-01-05T08:06:22.861Z,97917.25
2019-01-05T08:12:19.744Z,97913.27
2019-01-05T08:18:36.728Z,97916.77
2019-01-05T08:24:38.146Z,97928.28
2019-01-05T08:30:51.036Z,97924.62
2019-01-05T08:37:05.018Z,97946.49
2019-01-05T08:43:20.996Z,97944.56
2019-01-05T08:49:36.820Z,97938.84
2019-01-05T08:55:32.698Z,97949.09
2019-01-05T09:01:32.475Z,97959.91
2019-01-05T09:07:42.063Z,97941.22
2019-01-05T09:13:44.306Z,97933.03
2019-01-05T09:19:55.870Z,97937.03
2019-01-05T09:26:12.228Z,97939.70
2019-01-05T09:32:12.711Z,97946.00
2019-01-05T09:38:08.029Z,97941.78
2019-01-05T09:44:15.246Z,97940.89
2019-01-05T09:50:36.711Z,97967.36
2019-01-05T09:56:38.936Z,97958.58
2019-01-05T10:02:43.849Z,97964.61
2019-01-05T10:08:56.572Z,97957.90
2019-01-05T10:14:50.839Z,97951.19
2019-01-05T10:20:57.909Z,97946.75
2019-01-05T10:27:15.860Z,97945.15
2019-01-05T10:33:43.939Z,97953.33
2019-01-05T10:39:32.406Z,97956.39
2019-01-05T10:45:23.285Z,97953.41
2019-01-05T10:51:39.844Z,97944.30
2019-01-05T10:57:51.484Z,97948.45
2019-01-05T11:04:12.554Z,97947.70
2019-01-05T11:10:17.662Z,97955.70
2019-01-05T11:16:15.705Z,97963.48
2019-01-05T11:22:15.771Z,97948.41
2019-01-05T11:28:42.024Z,97952.28
2019-01-05T11:34:42.523Z,97947.61
2019-01-05T11:40:53.388Z,97948.38
2019-01-05T11:46:36.233Z,97956.11
2019-01-05T11:53:01.047Z,97959.61
2019-01-05T11:59:40.671Z,97955.36
2019-01-05T12:05:51.048Z,97958.43
2019-01-05T12:11:47.061Z,97959.48
2019-01-05T12:17:56.919Z,97956.64
2019-01-05T12:24:32.420Z,97959.64
2019-01-05T12:30:43.364Z,97963.42
2019-01-05T12:36:47.041Z,97951.75
2019-01-05T12:42:55.244Z,97955.53
2019-01-05T12:49:11.939Z,97955.23
2019-01-05T12:55:43.920Z,97957.86
2019-01-05T13:01:51.809Z,97962.58
2019-01-05T13:07:59.959Z,97975.12
2019-01-05T13:14:00.275Z,97965.68
2019-01-05T13:20:20.497Z,97973.47
2019-01-05T13:26:18.120Z,97973.09
2019-01-05T13:32:41.442Z,97977.48
2019-01-05T13:38:55.489Z,97976.09
2019-01-05T13:45:08.487Z,97984.95
2019-01-05T13:51:24.172Z,97982.27
2019-01-05T13:57:03.451Z,97980.03
2019-01-05T14:02:47.243Z,97995.48
2019-01-05T14:08:11.128Z,98002.22
2019-01-05T14:13:47.219Z,98013.84
2019-01-05T14:19:24.264Z,98020.92
2019-01-05T14:24:38.497Z,98024.45
2019-01-05T14:30:13.080Z,98020.20
2019-01-05T14:35:50.436Z,98023.81
2019-01-05T14:41:15.737Z,98021.25
2019-01-05T14:46:40.077Z,98023.41
2019-01-05T14:52:00.445Z,98029.08
2019-01-05T14:57:26.066Z,98037.50
2019-01-05T15:02:57.636Z,98041.34
2019-01-05T15:08:21.722Z,98066.11
2019-01-05T15:13:59.475Z,98055.84
2019-01-05T15:19:23.297Z,98062.78
2019-01-05T15:24:47.166Z,98061.72
2019-01-05T15:30:11.365Z,98068.00
2019-01-05T15:35:35.536Z,98074.72
2019-01-05T15:41:28.998Z,98064.89
2019-01-05T15:47:10.798Z,98081.03
2019-01-05T15:52:43.059Z,98081.08
2019-01-05T15:58:22.538Z,98073.34
2019-01-05T16:03:41.960Z,98073.52
2019-01-05T16:09:16.242Z,98079.45
2019-01-05T16:14:57.170Z,98079.98
2019-01-05T16:20:14.843Z,98082.55
2019-01-05T16:25:39.135Z,98092.59
2019-01-05T16:31:22.881Z,98097.44
2019-01-05T16:36:54.731Z,98093.50
2019-01-05T16:42:34.951Z,98086.88
2019-01-05T16:47:58.815Z,98082.02
2019-01-05T16:53:36.117Z,98089.34
2019-01-05T16:59:07.501Z,98084.09
2019-01-05T17:04:30.773Z,98089.28
2019-01-05T17:09:54.972Z,98093.59
2019-01-05T17:15:25.041Z,98095.91
2019-01-05T17:20:53.710Z,98099.11
2019-01-05T17:26:18.966Z,98097.42
2019-01-05T17:31:44.283Z,98105.20
2019-01-05T17:37:08.842Z,98112.55
2019-01-05T17:42:52.155Z,98116.43
2019-01-05T17:48:20.531Z,98114.56
2019-01-05T17:53:44.966Z,98111.30
2019-01-05T17:59:16.395Z,98110.62
2019-01-05T18:04:41.762Z,98119.59
2019-01-05T18:10:07.125Z,98125.75
2019-01-05T18:15:32.216Z,98134.58
2019-01-05T18:20:56.751Z,98138.61
2019-01-05T18:26:21.021Z,98140.99
2019-01-05T18:31:48.054Z,98132.70
2019-01-05T18:37:16.202Z,98141.77
2019-01-05T18:42:36.108Z,98140.77
2019-01-05T18:48:04.808Z,98143.71
2019-01-05T18:53:28.780Z,98126.78
2019-01-05T18:58:54.576Z,98129.11
2019-01-05T19:04:19.807Z,98134.20
2019-01-05T19:10:03.336Z,98137.67
2019-01-05T19:15:35.270Z,98128.16
2019-01-05T19:21:02.647Z,98141.91
2019-01-05T19:26:33.934Z,98134.64
2019-01-05T19:31:59.349Z,98135.52
2019-01-05T19:37:23.630Z,98136.89
2019-01-05T19:43:04.222Z,98144.62
2019-01-05T19:48:28.214Z,98142.30
2019-01-05T19:53:52.193Z,98147.72
2019-01-05T19:59:16.011Z,98150.81
2019-01-05T20:04:55.306Z,98149.19
2019-01-05T20:10:32.714Z,98161.22
2019-01-05T20:15:58.305Z,98160.64
2019-01-05T20:21:21.264Z,98156.69
2019-01-05T20:26:39.985Z,98172.46
2019-01-05T20:32:14.556Z,98186.28
2019-01-05T20:37:30.642Z,98180.63
2019-01-05T20:42:54.622Z,98181.02
2019-01-05T20:48:29.263Z,98192.38
2019-01-05T20:53:53.677Z,98196.70
2019-01-05T20:59:18.042Z,98198.19
2019-01-05T21:04:53.032Z,98197.70
2019-01-05T21:10:21.698Z,98199.32
2019-01-05T21:15:46.438Z,98196.24
2019-01-05T21:21:23.988Z,98203.45
2019-01-05T21:26:55.634Z,98194.95
2019-01-05T21:32:39.751Z,98204.91
2019-01-05T21:38:18.223Z,98209.53
2019-01-05T21:43:56.119Z,98214.86
2019-01-05T21:49:29.214Z,98202.28
2019-01-05T21:54:50.129Z,98210.84
2019-01-05T22:00:16.919Z,98209.45
2019-01-05T22:05:42.325Z,98211.55
2019-01-05T22:11:16.955Z,98205.06
2019-01-05T22:16:56.018Z,98205.28
2019-01-05T22:22:29.362Z,98205.45
2019-01-05T22:28:05.605Z,98216.73
2019-01-05T22:33:46.392Z,98209.60
2019-01-05T22:39:11.900Z,98213.63
2019-01-05T22:44:46.338Z,98229.86
2019-01-05T22:50:18.735Z,98226.45
2019-01-05T22:55:55.555Z,98225.28
2019-01-05T23:01:33.469Z,98228.20
2019-01-05T23:07:02.208Z,98227.22
2019-01-05T23:12:37.643Z,98231.77
2019-01-05T23:18:02.955Z,98229.91
2019-01-05T23:23:26.511Z,98232.77
2019-01-05T23:28:47.744Z,98231.07
2019-01-05T23:34:13.896Z,98235.39
2019-01-05T23:39:38.005Z,98230.84
2019-01-05T23:45:02.719Z,98229.73
2019-01-05T23:50:27.949Z,98232.67
2019-01-05T23:56:11.274Z,98238.95
